Zhetygen Airport

Jump to: basic info | weather | comments

Related pages: nearby airports | nearby navaids

Basic information (top)

Location: lon 43.733101, lat 77.119400, elev 1,638 ft / 499 m msl
Status: small_airport

Weather (top)

Current conditions for Almaty Airport 23nm (43km) S (rec'd 2014/04/23 16:30Z):

UAAA 231630Z 16002MPS 2200 FU NSC 03/M04 Q1024 88CLRD65 NOSIG

Airport forecast for Almaty Airport 23nm (43km) S (rec'd 2014/04/23 12:18Z):

TAF TAF UAAA 231100Z 2312/2412 03006MPS 3000 BR FU BKN100 TX15/2409Z TNM02/2401Z 
      TEMPO 2314/2318 0800 
      TEMPO 2318/2403 16005MPS 0600 FZFG 
      BECMG 2405/2406 9999 NSW

Latest comments (top)

No comments yet for Zhetygen Airport

More... (top)

See also NOTAMs and nearby airports and navaids, or visit the Zhetygen Airport page at the main OurAirports website..